Morton S Bouchard Jr — WSE9678 — position and weather

sailwx.info

Track history (hours):
 
Tides and Currents Weather Stations Pressure Air Temp Water Temp Dewpoint Dewpoint Depression Visibility Wind Speed Wind Dir Waves Ship Positions

Morton S Bouchard Jr

Owner: BOUCHARD TRANSPORTATION CO INC, MELVILLE, NY. More information available from US FCC via Universal Licensing System and Coast Guard Vessel Documentation Center.

Last reported at 2016-May-25 04:33 UTC. Time now 2016-May-25 05:21 UTC.
Position N 40°40' W 074°02'.

Length 33 m; draft 6.3 m.

Type: Tug. MMSI: 367006550.

Date/timePositionNaut miles runAvg speedWind from/ knotsBaromVisibWave heightAir tempDewpointWater temp
2016-May-25 04:33N 40°40' W 074°02'0 0.0
2016-May-25 03:33N 40°40' W 074°02'0 0.0
2016-May-25 02:33N 40°40' W 074°02'0 0.0
2016-May-25 01:33N 40°40' W 074°02'3 2.9
2016-May-25 00:33N 40°39' W 074°05'0 0.5
2016-May-24 23:33N 40°39' W 074°05'10 9.2
2016-May-24 22:28N 40°47' W 073°56'4 4.1
2016-May-24 21:33N 40°43' W 073°58'2 2.3
2016-May-24 20:33N 40°42' W 074°00'2 2.0
2016-May-24 19:33N 40°40' W 074°02'0 0.0
2016-May-24 18:33N 40°40' W 074°02'0 0.0
2016-May-24 17:33N 40°40' W 074°02'0 0.1
2016-May-24 16:33N 40°40' W 074°02'0 0.0
2016-May-24 15:33N 40°40' W 074°02'0 0.0
2016-May-24 14:33N 40°40' W 074°02'0 0.0
2016-May-24 13:33N 40°40' W 074°02'0 0.1
2016-May-24 12:33N 40°40' W 074°02'0 0.0
2016-May-24 11:34N 40°40' W 074°02'0 0.1
2016-May-24 10:33N 40°40' W 074°02'0 0.0
2016-May-24 09:33N 40°40' W 074°02'3 3.2
2016-May-24 08:33N 40°39' W 074°06'1 0.9
2016-May-24 07:33N 40°39' W 074°07'0 0.0
2016-May-24 06:33N 40°39' W 074°07'0 0.0
2016-May-24 05:33N 40°39' W 074°07'3 3.4
2016-May-24 04:33N 40°38' W 074°12'2 1.2
2016-May-24 03:10N 40°37' W 074°12'4 6.3
2016-May-24 02:33N 40°39' W 074°08'6 6.4
2016-May-24 01:33N 40°42' W 074°00'0 0.0
2016-May-24 00:33N 40°41' W 074°00'2 1.8
2016-May-23 23:33N 40°40' W 074°02'0 0.1
2016-May-23 22:33N 40°40' W 074°02'0 0.1
2016-May-23 21:33N 40°40' W 074°02'0 0.1
2016-May-23 20:33N 40°40' W 074°02'0 0.1
2016-May-23 19:33N 40°40' W 074°02'0 0.0
2016-May-23 18:33N 40°40' W 074°02'0 0.1
2016-May-23 17:33N 40°40' W 074°02'0 0.1
2016-May-23 16:33N 40°40' W 074°02'0 0.0
2016-May-23 15:33N 40°40' W 074°02'0 0.0
2016-May-23 14:33N 40°40' W 074°02'0 0.0
2016-May-23 13:33N 40°40' W 074°02'0 0.0
2016-May-23 12:33N 40°40' W 074°02'0 0.1
2016-May-23 11:33N 40°40' W 074°02'0 0.1
2016-May-23 10:33N 40°40' W 074°02'0 0.0
2016-May-23 09:33N 40°40' W 074°02'0 0.0
2016-May-23 08:33N 40°40' W 074°02'0 0.0
2016-May-23 07:33N 40°40' W 074°02'0 0.0
2016-May-23 06:33N 40°40' W 074°02'0 0.0
2016-May-23 05:33N 40°40' W 074°02'0 0.1
2016-May-23 04:33N 40°40' W 074°02'0 0.1
2016-May-23 03:33N 40°40' W 074°02'0 0.0
2016-May-23 02:32N 40°40' W 074°02'0 0.0
2016-May-23 01:33N 40°40' W 074°02'0 0.0
2016-May-23 00:32N 40°40' W 074°02'0 0.0
2016-May-22 23:32N 40°40' W 074°02'0 0.1
2016-May-22 22:30N 40°40' W 074°02'1 1.3
2016-May-22 21:33N 40°41' W 074°01'10 0.4
2016-May-21 20:33N 40°48' W 073°51'5 5.4
2016-May-21 19:33N 40°46' W 073°57'4 4.5
2016-May-21 18:33N 40°42' W 074°00'6 5.9
2016-May-21 17:33N 40°39' W 074°07'4 0.2
2016-May-20 16:32N 40°38' W 074°12'6 5.8
2016-May-20 15:33N 40°39' W 074°04'8 8.1
2016-May-20 14:33N 40°45' W 073°58'6 0.2
2016-May-19 13:16N 40°48' W 073°51'5 7.0
2016-May-19 12:33N 40°46' W 073°57'7 6.8
2016-May-19 11:33N 40°40' W 074°01'2 1.9
2016-May-19 10:31N 40°38' W 074°03'0 0.0
2016-May-19 09:31N 40°38' W 074°03'0 0.2
2016-May-19 08:31N 40°38' W 074°03'5 5.5
2016-May-19 07:34N 40°39' W 074°10'2 2.1
2016-May-19 06:30N 40°38' W 074°12'0 0.0
2016-May-19 05:30N 40°38' W 074°12'0 0.0
2016-May-19 04:30N 40°38' W 074°12'0 0.0
2016-May-19 03:24N 40°38' W 074°12'0 0.3
2016-May-19 02:33N 40°38' W 074°12'4 3.9
2016-May-19 01:33N 40°39' W 074°07'0 0.0
2016-May-19 00:27N 40°39' W 074°07'0 0.0
2016-May-18 23:06N 40°39' W 074°07'0 0.0
2016-May-18 22:33N 40°39' W 074°07'0 0.0
2016-May-18 20:30N 40°39' W 074°07'0 0.0
2016-May-18 19:06N 40°39' W 074°07'0 0.0
2016-May-18 14:18N 40°39' W 074°07'0 0.1
2016-May-18 13:30N 40°39' W 074°07'5 0.7
2016-May-18 07:23N 40°36' W 074°12'2 1.4
2016-May-18 06:12N 40°38' W 074°12'4 5.9
2016-May-18 05:33N 40°39' W 074°07'4 3.8
2016-May-18 04:33N 40°40' W 074°03'0 0.0
2016-May-18 03:33N 40°40' W 074°03'0 0.0
2016-May-18 02:33N 40°40' W 074°03'0 0.1
2016-May-18 01:33N 40°40' W 074°03'0 0.2
2016-May-18 00:33N 40°40' W 074°02'8 7.6
2016-May-17 23:33N 40°46' W 073°57'56 7.8
2016-May-17 16:24N 41°05' W 072°47'7 8.4
2016-May-17 15:34N 41°07' W 072°38'8 8.1
2016-May-17 14:33N 41°10' W 072°28'8 8.3
2016-May-17 13:33N 41°12' W 072°17'95 6.7
2016-May-16 23:27N 42°13' W 070°39'9 9.6
2016-May-16 22:33N 42°19' W 070°46'7 7.2
2016-May-16 21:32N 42°23' W 070°55'5 5.3
2016-May-16 20:33N 42°21' W 071°02'0 0.2
2016-May-16 19:31N 42°21' W 071°02'0 0.0
2016-May-16 18:31N 42°21' W 071°02'0 0.0
2016-May-16 17:31N 42°21' W 071°02'0 0.0
2016-May-16 16:31N 42°21' W 071°02'0 0.0
2016-May-16 15:31N 42°21' W 071°02'0 0.0
2016-May-16 14:25N 42°21' W 071°02'0 0.0
2016-May-16 13:31N 42°21' W 071°02'0 0.0
2016-May-16 12:31N 42°21' W 071°02'0 0.0
2016-May-16 11:31N 42°21' W 071°02'0 0.0
2016-May-16 10:31N 42°21' W 071°02'0 0.0
2016-May-16 09:31N 42°21' W 071°02'0 0.0
2016-May-16 08:31N 42°21' W 071°02'0 0.0
2016-May-16 07:31N 42°21' W 071°02'0 0.0
2016-May-16 06:31N 42°21' W 071°02'0 0.0
2016-May-16 05:31N 42°21' W 071°02'0 0.0
2016-May-16 04:31N 42°21' W 071°02'0 0.0
2016-May-16 03:31N 42°21' W 071°02'0 0.0
2016-May-16 02:31N 42°21' W 071°02'0 0.0
2016-May-16 01:31N 42°21' W 071°02'0 0.0
2016-May-16 00:31N 42°21' W 071°02'0 0.0
2016-May-15 23:31N 42°21' W 071°02'0 0.0
2016-May-15 22:32N 42°21' W 071°02'0 0.0
2016-May-15 21:33N 42°21' W 071°02'0 0.0
2016-May-15 20:33N 42°21' W 071°02'0 0.0
2016-May-15 19:34N 42°21' W 071°02'0 0.0
2016-May-15 18:33N 42°21' W 071°02'0 0.0
2016-May-15 17:33N 42°21' W 071°02'2 1.8
2016-May-15 16:33N 42°23' W 071°03'1 1.0
2016-May-15 15:33N 42°23' W 071°01'0 0.0
2016-May-15 12:22N 42°23' W 071°02'0 0.0
2016-May-15 11:33N 42°23' W 071°02'0 0.0
2016-May-15 10:34N 42°23' W 071°02'0 0.0
2016-May-15 09:33N 42°23' W 071°02'0 0.0
2016-May-15 07:32N 42°23' W 071°02'  
Track history (hours):
 
Tides and Currents Weather Stations Pressure Air Temp Water Temp Dewpoint Dewpoint Depression Visibility Wind Speed Wind Dir Waves Ship Positions

Morton S Bouchard Jr

Owner: BOUCHARD TRANSPORTATION CO INC, MELVILLE, NY. More information available from US FCC via Universal Licensing System and Coast Guard Vessel Documentation Center.

Last reported at 2016-May-25 04:33 UTC. Time now 2016-May-25 05:21 UTC.
Position N 40°40' W 074°02'.

Length 33 m; draft 6.3 m.

Type: Tug. MMSI: 367006550.

Date/timePositionNaut miles runAvg speedWind from/ knotsBaromVisibWave heightAir tempDewpointWater temp
2016-May-25 04:33N 40°40' W 074°02'0 0.0
2016-May-25 03:33N 40°40' W 074°02'0 0.0
2016-May-25 02:33N 40°40' W 074°02'0 0.0
2016-May-25 01:33N 40°40' W 074°02'3 2.9
2016-May-25 00:33N 40°39' W 074°05'0 0.5
2016-May-24 23:33N 40°39' W 074°05'10 9.2
2016-May-24 22:28N 40°47' W 073°56'4 4.1
2016-May-24 21:33N 40°43' W 073°58'2 2.3
2016-May-24 20:33N 40°42' W 074°00'2 2.0
2016-May-24 19:33N 40°40' W 074°02'0 0.0
2016-May-24 18:33N 40°40' W 074°02'0 0.0
2016-May-24 17:33N 40°40' W 074°02'0 0.1
2016-May-24 16:33N 40°40' W 074°02'0 0.0
2016-May-24 15:33N 40°40' W 074°02'0 0.0
2016-May-24 14:33N 40°40' W 074°02'0 0.0
2016-May-24 13:33N 40°40' W 074°02'0 0.1
2016-May-24 12:33N 40°40' W 074°02'0 0.0
2016-May-24 11:34N 40°40' W 074°02'0 0.1
2016-May-24 10:33N 40°40' W 074°02'0 0.0
2016-May-24 09:33N 40°40' W 074°02'3 3.2
2016-May-24 08:33N 40°39' W 074°06'1 0.9
2016-May-24 07:33N 40°39' W 074°07'0 0.0
2016-May-24 06:33N 40°39' W 074°07'0 0.0
2016-May-24 05:33N 40°39' W 074°07'3 3.4
2016-May-24 04:33N 40°38' W 074°12'2 1.2
2016-May-24 03:10N 40°37' W 074°12'4 6.3
2016-May-24 02:33N 40°39' W 074°08'6 6.4
2016-May-24 01:33N 40°42' W 074°00'0 0.0
2016-May-24 00:33N 40°41' W 074°00'2 1.8
2016-May-23 23:33N 40°40' W 074°02'0 0.1
2016-May-23 22:33N 40°40' W 074°02'0 0.1
2016-May-23 21:33N 40°40' W 074°02'0 0.1
2016-May-23 20:33N 40°40' W 074°02'0 0.1
2016-May-23 19:33N 40°40' W 074°02'0 0.0
2016-May-23 18:33N 40°40' W 074°02'0 0.1
2016-May-23 17:33N 40°40' W 074°02'0 0.1
2016-May-23 16:33N 40°40' W 074°02'0 0.0
2016-May-23 15:33N 40°40' W 074°02'0 0.0
2016-May-23 14:33N 40°40' W 074°02'0 0.0
2016-May-23 13:33N 40°40' W 074°02'0 0.0
2016-May-23 12:33N 40°40' W 074°02'0 0.1
2016-May-23 11:33N 40°40' W 074°02'0 0.1
2016-May-23 10:33N 40°40' W 074°02'0 0.0
2016-May-23 09:33N 40°40' W 074°02'0 0.0
2016-May-23 08:33N 40°40' W 074°02'0 0.0
2016-May-23 07:33N 40°40' W 074°02'0 0.0
2016-May-23 06:33N 40°40' W 074°02'0 0.0
2016-May-23 05:33N 40°40' W 074°02'0 0.1
2016-May-23 04:33N 40°40' W 074°02'0 0.1
2016-May-23 03:33N 40°40' W 074°02'0 0.0
2016-May-23 02:32N 40°40' W 074°02'0 0.0
2016-May-23 01:33N 40°40' W 074°02'0 0.0
2016-May-23 00:32N 40°40' W 074°02'0 0.0
2016-May-22 23:32N 40°40' W 074°02'0 0.1
2016-May-22 22:30N 40°40' W 074°02'1 1.3
2016-May-22 21:33N 40°41' W 074°01'10 0.4
2016-May-21 20:33N 40°48' W 073°51'5 5.4
2016-May-21 19:33N 40°46' W 073°57'4 4.5
2016-May-21 18:33N 40°42' W 074°00'6 5.9
2016-May-21 17:33N 40°39' W 074°07'4 0.2
2016-May-20 16:32N 40°38' W 074°12'6 5.8
2016-May-20 15:33N 40°39' W 074°04'8 8.1
2016-May-20 14:33N 40°45' W 073°58'6 0.2
2016-May-19 13:16N 40°48' W 073°51'5 7.0
2016-May-19 12:33N 40°46' W 073°57'7 6.8
2016-May-19 11:33N 40°40' W 074°01'2 1.9
2016-May-19 10:31N 40°38' W 074°03'0 0.0
2016-May-19 09:31N 40°38' W 074°03'0 0.2
2016-May-19 08:31N 40°38' W 074°03'5 5.5
2016-May-19 07:34N 40°39' W 074°10'2 2.1
2016-May-19 06:30N 40°38' W 074°12'0 0.0
2016-May-19 05:30N 40°38' W 074°12'0 0.0
2016-May-19 04:30N 40°38' W 074°12'0 0.0
2016-May-19 03:24N 40°38' W 074°12'0 0.3
2016-May-19 02:33N 40°38' W 074°12'4 3.9
2016-May-19 01:33N 40°39' W 074°07'0 0.0
2016-May-19 00:27N 40°39' W 074°07'0 0.0
2016-May-18 23:06N 40°39' W 074°07'0 0.0
2016-May-18 22:33N 40°39' W 074°07'0 0.0
2016-May-18 20:30N 40°39' W 074°07'0 0.0
2016-May-18 19:06N 40°39' W 074°07'0 0.0
2016-May-18 14:18N 40°39' W 074°07'0 0.1
2016-May-18 13:30N 40°39' W 074°07'5 0.7
2016-May-18 07:23N 40°36' W 074°12'2 1.4
2016-May-18 06:12N 40°38' W 074°12'4 5.9
2016-May-18 05:33N 40°39' W 074°07'4 3.8
2016-May-18 04:33N 40°40' W 074°03'0 0.0
2016-May-18 03:33N 40°40' W 074°03'0 0.0
2016-May-18 02:33N 40°40' W 074°03'0 0.1
2016-May-18 01:33N 40°40' W 074°03'0 0.2
2016-May-18 00:33N 40°40' W 074°02'8 7.6
2016-May-17 23:33N 40°46' W 073°57'56 7.8
2016-May-17 16:24N 41°05' W 072°47'7 8.4
2016-May-17 15:34N 41°07' W 072°38'8 8.1
2016-May-17 14:33N 41°10' W 072°28'8 8.3
2016-May-17 13:33N 41°12' W 072°17'95 6.7
2016-May-16 23:27N 42°13' W 070°39'9 9.6
2016-May-16 22:33N 42°19' W 070°46'7 7.2
2016-May-16 21:32N 42°23' W 070°55'5 5.3
2016-May-16 20:33N 42°21' W 071°02'0 0.2
2016-May-16 19:31N 42°21' W 071°02'0 0.0
2016-May-16 18:31N 42°21' W 071°02'0 0.0
2016-May-16 17:31N 42°21' W 071°02'0 0.0
2016-May-16 16:31N 42°21' W 071°02'0 0.0
2016-May-16 15:31N 42°21' W 071°02'0 0.0
2016-May-16 14:25N 42°21' W 071°02'0 0.0
2016-May-16 13:31N 42°21' W 071°02'0 0.0
2016-May-16 12:31N 42°21' W 071°02'0 0.0
2016-May-16 11:31N 42°21' W 071°02'0 0.0
2016-May-16 10:31N 42°21' W 071°02'0 0.0
2016-May-16 09:31N 42°21' W 071°02'0 0.0
2016-May-16 08:31N 42°21' W 071°02'0 0.0
2016-May-16 07:31N 42°21' W 071°02'0 0.0
2016-May-16 06:31N 42°21' W 071°02'0 0.0
2016-May-16 05:31N 42°21' W 071°02'0 0.0
2016-May-16 04:31N 42°21' W 071°02'0 0.0
2016-May-16 03:31N 42°21' W 071°02'0 0.0
2016-May-16 02:31N 42°21' W 071°02'0 0.0
2016-May-16 01:31N 42°21' W 071°02'0 0.0
2016-May-16 00:31N 42°21' W 071°02'0 0.0
2016-May-15 23:31N 42°21' W 071°02'0 0.0
2016-May-15 22:32N 42°21' W 071°02'0 0.0
2016-May-15 21:33N 42°21' W 071°02'0 0.0
2016-May-15 20:33N 42°21' W 071°02'0 0.0
2016-May-15 19:34N 42°21' W 071°02'0 0.0
2016-May-15 18:33N 42°21' W 071°02'0 0.0
2016-May-15 17:33N 42°21' W 071°02'2 1.8
2016-May-15 16:33N 42°23' W 071°03'1 1.0
2016-May-15 15:33N 42°23' W 071°01'0 0.0
2016-May-15 12:22N 42°23' W 071°02'0 0.0
2016-May-15 11:33N 42°23' W 071°02'0 0.0
2016-May-15 10:34N 42°23' W 071°02'0 0.0
2016-May-15 09:33N 42°23' W 071°02'0 0.0
2016-May-15 07:32N 42°23' W 071°02'  

Dump ship's entire track history